Mc Kean, Pennsylvania
Current Conditions -  °F | °C
As of 5:51 PM on Thursday 23 Oct 2014 (Local Time) from KERI Reporting Station
Clear Clear  
Wind Chill: 56°   Ceiling: Unl
Heat Index: 56°   Visibility: 10mi
Dew Point: 45°   Wind: 7mph
Humidity: 67%   Direction: 260°W
Pressure: 30.08"   Gusts: NA
Location:  41.9793°N, 80.1405°W
Report Text: KERI 232151Z 26006KT 10SM CLR 13/07 A3008 RMK AO2 SLP190 T01330072
Loading
Personal Weather Stations






























Interactive Weather Map
Tropical Storm Tracking
New forecast layout! Learn more

10-Day Weather Forecast

Advertisements
Track Severe Weather on mobile